Time,TemperatureF,DewpointF,PressureIn,WindDirection,WindDirectionDegrees,WindSpeedMPH,WindSpeedGustMPH,Humidity,HourlyPrecipIn,Conditions,Clouds,dailyrainin,SoftwareType,DateUTC
2013-10-04 00:05:00,76.2,68.1,29.92,East,94,6.0,7.0,76,0.00,,,0.00,Wunderground v.1.15,2013-10-04 10:05:00,
2013-10-04 00:15:00,76.1,67.2,29.92,ESE,116,4.0,9.0,74,0.00,,,0.00,Wunderground v.1.15,2013-10-04 10:15:00,
2013-10-04 00:25:00,75.9,67.0,29.92,ESE,119,7.0,7.0,74,0.00,,,0.00,Wunderground v.1.15,2013-10-04 10:25:00,
2013-10-04 00:34:00,75.4,67.3,29.92,ESE,103,6.0,11.0,76,0.00,,,0.00,Wunderground v.1.15,2013-10-04 10:34:00,
2013-10-04 00:45:00,75.1,67.4,29.92,East,89,7.0,7.0,77,0.00,,,0.00,Wunderground v.1.15,2013-10-04 10:45:00,
2013-10-04 00:55:00,75.0,67.3,29.92,ESE,106,6.0,6.0,77,0.00,,,0.00,Wunderground v.1.15,2013-10-04 10:55:00,
2013-10-04 01:05:00,75.2,67.1,29.92,ESE,102,6.0,9.0,76,0.00,,,0.00,Wunderground v.1.15,2013-10-04 11:05:00,
2013-10-04 01:15:00,75.5,66.6,29.93,ESE,104,5.0,6.0,74,0.00,,,0.00,Wunderground v.1.15,2013-10-04 11:15:00,
2013-10-04 01:25:00,75.5,66.6,29.93,ESE,114,5.0,5.0,74,0.00,,,0.00,Wunderground v.1.15,2013-10-04 11:25:00,
2013-10-04 01:35:00,75.2,67.1,29.92,ESE,113,3.0,4.0,76,0.00,,,0.00,Wunderground v.1.15,2013-10-04 11:35:00,
2013-10-04 01:45:00,74.6,67.3,29.93,SE,126,5.0,5.0,78,0.00,,,0.00,Wunderground v.1.15,2013-10-04 11:45:00,
2013-10-04 01:55:00,74.4,67.1,29.92,ESE,113,4.0,5.0,78,0.00,,,0.00,Wunderground v.1.15,2013-10-04 11:55:00,
2013-10-04 02:05:00,74.2,67.3,29.92,ESE,113,2.0,3.0,79,0.00,,,0.00,Wunderground v.1.15,2013-10-04 12:05:00,
2013-10-04 02:15:00,74.1,67.5,29.92,ESE,113,1.0,2.0,80,0.00,,,0.00,Wunderground v.1.15,2013-10-04 12:15:00,
2013-10-04 02:25:00,74.3,67.4,29.92,East,97,2.0,5.0,79,0.00,,,0.00,Wunderground v.1.15,2013-10-04 12:25:00,
2013-10-04 02:35:00,74.4,67.8,29.92,East,99,3.0,3.0,80,0.00,,,0.00,Wunderground v.1.15,2013-10-04 12:35:00,
2013-10-04 02:44:00,74.1,67.5,29.92,ESE,105,3.0,3.0,80,0.00,,,0.00,Wunderground v.1.15,2013-10-04 12:44:00,
2013-10-04 02:55:00,73.8,67.2,29.92,ESE,111,5.0,5.0,80,0.00,,,0.00,Wunderground v.1.15,2013-10-04 12:55:00,
2013-10-04 03:05:00,73.8,66.9,29.91,ESE,103,4.0,4.0,79,0.00,,,0.00,Wunderground v.1.15,2013-10-04 13:05:00,
2013-10-04 03:15:00,74.1,66.4,29.91,East,88,2.0,4.0,77,0.00,,,0.00,Wunderground v.1.15,2013-10-04 13:15:00,
2013-10-04 03:25:00,74.2,66.1,29.91,East,95,1.0,1.0,76,0.00,,,0.00,Wunderground v.1.15,2013-10-04 13:25:00,
2013-10-04 03:35:00,74.2,66.1,29.91,ESE,103,1.0,1.0,76,0.00,,,0.00,Wunderground v.1.15,2013-10-04 13:35:00,
2013-10-04 03:40:00,74.2,66.1,29.91,ESE,102,0.0,0.0,76,0.00,,,0.00,Wunderground v.1.15,2013-10-04 13:40:00,
2013-10-04 03:50:00,74.1,66.4,29.92,ESE,102,0.0,1.0,77,0.00,,,0.00,Wunderground v.1.15,2013-10-04 13:50:00,
2013-10-04 04:00:00,74.2,66.1,29.92,ESE,103,1.0,1.0,76,0.00,,,0.00,Wunderground v.1.15,2013-10-04 14:00:00,
2013-10-04 04:05:00,74.2,66.1,29.92,ESE,102,0.0,1.0,76,0.00,,,0.00,Wunderground v.1.15,2013-10-04 14:05:00,
2013-10-04 04:14:00,74.1,66.8,29.92,East,96,1.0,1.0,78,0.00,,,0.00,Wunderground v.1.15,2013-10-04 14:14:00,
2013-10-04 04:25:00,74.3,68.1,29.92,East,86,3.0,3.0,81,0.00,,,0.00,Wunderground v.1.15,2013-10-04 14:25:00,
2013-10-04 04:35:00,73.9,68.4,29.92,ENE,68,2.0,2.0,83,0.00,,,0.00,Wunderground v.1.15,2013-10-04 14:35:00,
2013-10-04 04:45:00,73.6,68.5,29.92,ENE,69,1.0,3.0,84,0.00,,,0.00,Wunderground v.1.15,2013-10-04 14:45:00,
2013-10-04 04:54:00,73.4,68.3,29.93,ENE,69,1.0,2.0,84,0.00,,,0.00,Wunderground v.1.15,2013-10-04 14:54:00,
2013-10-04 05:00:00,73.3,68.2,29.93,ENE,69,1.0,3.0,84,0.00,,,0.00,Wunderground v.1.15,2013-10-04 15:00:00,
2013-10-04 05:05:00,73.2,68.1,29.93,ENE,64,2.0,3.0,84,0.00,,,0.00,Wunderground v.1.15,2013-10-04 15:05:00,
2013-10-04 05:15:00,73.3,68.5,29.94,ENE,64,2.0,3.0,85,0.00,,,0.00,Wunderground v.1.15,2013-10-04 15:15:00,
2013-10-04 05:25:00,73.4,69.6,29.94,ENE,69,3.0,3.0,88,0.00,,,0.00,Wunderground v.1.15,2013-10-04 15:25:00,
2013-10-04 05:35:00,72.7,68.9,29.95,East,90,3.0,3.0,88,0.00,,,0.00,Wunderground v.1.15,2013-10-04 15:35:00,
2013-10-04 05:45:00,72.5,69.1,29.95,East,90,2.0,2.0,89,0.00,,,0.00,Wunderground v.1.15,2013-10-04 15:45:00,
2013-10-04 05:55:00,72.4,69.3,29.95,East,88,1.0,2.0,90,0.11,,,0.02,Wunderground v.1.15,2013-10-04 15:55:00,
2013-10-04 06:05:00,72.2,69.1,29.95,East,88,1.0,2.0,90,0.04,,,0.02,Wunderground v.1.15,2013-10-04 16:05:00,
2013-10-04 06:14:00,71.9,68.8,29.95,East,88,1.0,3.0,90,0.00,,,0.02,Wunderground v.1.15,2013-10-04 16:14:00,
2013-10-04 06:25:00,71.8,68.4,29.95,ESE,105,3.0,3.0,89,0.00,,,0.02,Wunderground v.1.15,2013-10-04 16:25:00,
2013-10-04 06:30:00,72.0,68.2,29.95,ESE,118,3.0,3.0,88,0.00,,,0.02,Wunderground v.1.15,2013-10-04 16:30:00,
2013-10-04 06:40:00,72.0,67.9,29.95,ESE,119,3.0,3.0,87,0.00,,,0.02,Wunderground v.1.15,2013-10-04 16:40:00,
2013-10-04 06:50:00,72.1,68.0,29.95,ESE,119,2.0,2.0,87,0.00,,,0.02,Wunderground v.1.15,2013-10-04 16:50:00,
2013-10-04 06:59:00,72.3,68.2,29.95,ESE,104,2.0,2.0,87,0.00,,,0.02,Wunderground v.1.15,2013-10-04 16:59:00,
2013-10-04 07:05:00,72.4,68.3,29.95,ESE,105,1.0,5.0,87,0.00,,,0.02,Wunderground v.1.15,2013-10-04 17:05:00,
2013-10-04 07:15:00,73.0,68.9,29.95,East,95,1.0,1.0,87,0.00,,,0.02,Wunderground v.1.15,2013-10-04 17:15:00,
2013-10-04 07:25:00,73.6,69.5,29.96,East,84,2.0,5.0,87,0.00,,,0.02,Wunderground v.1.15,2013-10-04 17:25:00,
2013-10-04 07:35:00,74.1,69.6,29.96,ENE,78,2.0,3.0,86,0.00,,,0.02,Wunderground v.1.15,2013-10-04 17:35:00,
2013-10-04 08:10:00,77.8,69.6,29.97,ENE,77,3.0,3.0,76,0.00,,,0.02,Wunderground v.1.15,2013-10-04 18:10:00,
2013-10-04 08:20:00,78.5,69.9,29.97,East,101,3.0,3.0,75,0.00,,,0.02,Wunderground v.1.15,2013-10-04 18:20:00,
2013-10-04 08:30:00,78.6,69.6,29.97,ENE,77,4.0,4.0,74,0.00,,,0.02,Wunderground v.1.15,2013-10-04 18:30:00,
2013-10-04 08:35:00,78.0,69.4,29.98,ESE,122,4.0,7.0,75,0.00,,,0.02,Wunderground v.1.15,2013-10-04 18:35:00,
2013-10-04 08:45:00,76.7,70.4,29.98,ENE,75,4.0,6.0,81,0.00,,,0.02,Wunderground v.1.15,2013-10-04 18:45:00,
2013-10-04 08:55:00,75.3,70.1,29.98,ENE,76,4.0,5.0,84,0.00,,,0.02,Wunderground v.1.15,2013-10-04 18:55:00,
2013-10-04 09:00:00,75.2,70.0,29.98,ENE,61,4.0,4.0,84,0.00,,,0.02,Wunderground v.1.15,2013-10-04 19:00:00,
2013-10-04 09:05:00,75.4,69.9,29.98,East,84,3.0,4.0,83,0.00,,,0.02,Wunderground v.1.15,2013-10-04 19:05:00,
2013-10-04 09:15:00,76.3,70.4,29.98,East,100,4.0,5.0,82,0.00,,,0.02,Wunderground v.1.15,2013-10-04 19:15:00,
2013-10-04 09:20:00,76.7,70.4,29.98,East,85,4.0,5.0,81,0.00,,,0.02,Wunderground v.1.15,2013-10-04 19:20:00,
2013-10-04 09:30:00,76.6,70.3,29.98,East,94,5.0,5.0,81,0.00,,,0.02,Wunderground v.1.15,2013-10-04 19:30:00,
2013-10-04 09:39:00,76.2,70.7,29.98,ESE,105,5.0,10.0,83,0.00,,,0.02,Wunderground v.1.15,2013-10-04 19:39:00,
2013-10-04 09:45:00,76.2,70.7,29.98,ESE,105,5.0,10.0,83,0.00,,,0.02,Wunderground v.1.15,2013-10-04 19:45:00,
2013-10-04 09:55:00,76.3,70.0,29.98,East,95,5.0,5.0,81,0.00,,,0.02,Wunderground v.1.15,2013-10-04 19:55:00,
2013-10-04 10:05:00,78.1,71.1,29.98,ENE,74,4.0,5.0,79,0.00,,,0.02,Wunderground v.1.15,2013-10-04 20:05:00,
2013-10-04 10:15:00,79.9,72.0,29.98,East,96,4.0,4.0,77,0.00,,,0.02,Wunderground v.1.15,2013-10-04 20:15:00,
2013-10-04 10:25:00,81.5,72.0,29.98,ESE,106,4.0,6.0,73,0.00,,,0.02,Wunderground v.1.15,2013-10-04 20:25:00,
2013-10-04 10:35:00,81.6,71.7,29.98,ENE,63,6.0,11.0,72,0.00,,,0.02,Wunderground v.1.15,2013-10-04 20:35:00,
2013-10-04 10:45:00,81.0,71.9,29.98,ESE,105,6.0,6.0,74,0.00,,,0.02,Wunderground v.1.15,2013-10-04 20:45:00,
2013-10-04 10:54:00,80.5,71.8,29.98,East,98,6.0,6.0,75,0.00,,,0.02,Wunderground v.1.15,2013-10-04 20:54:00,
2013-10-04 11:00:00,80.8,72.5,29.97,ENE,58,6.0,6.0,76,0.00,,,0.02,Wunderground v.1.15,2013-10-04 21:00:00,
2013-10-04 11:05:00,81.1,72.4,29.97,East,91,6.0,6.0,75,0.00,,,0.02,Wunderground v.1.15,2013-10-04 21:05:00,
2013-10-04 11:15:00,81.6,71.7,29.97,ENE,62,6.0,7.0,72,0.00,,,0.02,Wunderground v.1.15,2013-10-04 21:15:00,
2013-10-04 11:25:00,82.1,71.8,29.96,NE,42,7.0,12.0,71,0.00,,,0.02,Wunderground v.1.15,2013-10-04 21:25:00,
2013-10-04 11:35:00,82.1,72.2,29.96,ENE,63,7.0,7.0,72,0.00,,,0.02,Wunderground v.1.15,2013-10-04 21:35:00,
2013-10-04 11:44:00,82.6,72.2,29.96,East,92,6.0,8.0,71,0.00,,,0.02,Wunderground v.1.15,2013-10-04 21:44:00,
2013-10-04 11:50:00,82.9,72.1,29.95,East,86,6.0,12.0,70,0.00,,,0.02,Wunderground v.1.15,2013-10-04 21:50:00,
2013-10-04 12:00:00,82.9,71.3,29.95,East,101,6.0,13.0,68,0.00,,,0.02,Wunderground v.1.15,2013-10-04 22:00:00,
2013-10-04 12:05:00,82.5,71.3,29.95,ESE,106,7.0,13.0,69,0.00,,,0.02,Wunderground v.1.15,2013-10-04 22:05:00,
2013-10-04 12:15:00,82.7,71.5,29.94,ENE,68,7.0,7.0,69,0.00,,,0.02,Wunderground v.1.15,2013-10-04 22:15:00,
2013-10-04 12:24:00,82.7,71.5,29.94,East,84,7.0,11.0,69,0.00,,,0.02,Wunderground v.1.15,2013-10-04 22:24:00,
2013-10-04 12:35:00,82.6,71.4,29.95,ENE,69,7.0,7.0,69,0.00,,,0.02,Wunderground v.1.15,2013-10-04 22:35:00,
2013-10-04 12:45:00,81.8,71.1,29.94,East,94,8.0,19.0,70,0.00,,,0.02,Wunderground v.1.15,2013-10-04 22:45:00,
2013-10-04 12:55:00,81.7,71.0,29.94,East,85,7.0,8.0,70,0.00,,,0.02,Wunderground v.1.15,2013-10-04 22:55:00,
2013-10-04 13:05:00,80.9,71.4,29.93,ENE,68,6.0,9.0,73,0.00,,,0.02,Wunderground v.1.15,2013-10-04 23:05:00,
2013-10-04 13:14:00,81.8,71.1,29.93,ENE,61,7.0,9.0,70,0.00,,,0.02,Wunderground v.1.15,2013-10-04 23:14:00,
2013-10-04 13:20:00,81.4,71.1,29.94,East,98,7.0,9.0,71,0.00,,,0.02,Wunderground v.1.15,2013-10-04 23:20:00,
2013-10-04 13:30:00,82.0,70.4,29.93,ESE,111,7.0,10.0,68,0.00,,,0.02,Wunderground v.1.15,2013-10-04 23:30:00,
2013-10-04 13:40:00,82.5,70.0,29.93,ENE,71,6.0,13.0,66,0.00,,,0.02,Wunderground v.1.15,2013-10-04 23:40:00,
2013-10-04 13:49:00,82.3,70.7,29.92,East,94,7.0,7.0,68,0.00,,,0.02,Wunderground v.1.15,2013-10-04 23:49:00,
2013-10-04 13:55:00,82.3,71.1,29.92,East,100,7.0,7.0,69,0.00,,,0.02,Wunderground v.1.15,2013-10-04 23:55:00,
2013-10-04 14:05:00,82.4,70.8,29.91,ESE,113,6.0,6.0,68,0.00,,,0.02,Wunderground v.1.15,2013-10-05 00:05:00,
2013-10-04 14:15:00,82.2,70.6,29.91,NE,49,6.0,13.0,68,0.00,,,0.02,Wunderground v.1.15,2013-10-05 00:15:00,
2013-10-04 14:25:00,81.8,69.8,29.91,ENE,59,6.0,9.0,67,0.00,,,0.02,Wunderground v.1.15,2013-10-05 00:25:00,
2013-10-04 14:34:00,81.0,70.7,29.91,East,94,8.0,10.0,71,0.00,,,0.02,Wunderground v.1.15,2013-10-05 00:34:00,
2013-10-04 14:40:00,80.5,70.6,29.91,ENE,71,7.0,7.0,72,0.00,,,0.02,Wunderground v.1.15,2013-10-05 00:40:00,
2013-10-04 14:50:00,81.5,69.9,29.91,East,98,5.0,5.0,68,0.00,,,0.02,Wunderground v.1.15,2013-10-05 00:50:00,
2013-10-04 15:00:00,82.2,69.7,29.91,ESE,107,5.0,9.0,66,0.00,,,0.02,Wunderground v.1.15,2013-10-05 01:00:00,
2013-10-04 15:05:00,82.6,69.2,29.91,East,94,6.0,9.0,64,0.00,,,0.02,Wunderground v.1.15,2013-10-05 01:05:00,
2013-10-04 15:15:00,83.2,68.8,29.91,ESE,114,6.0,7.0,62,0.00,,,0.02,Wunderground v.1.15,2013-10-05 01:15:00,
2013-10-04 15:24:00,82.1,67.8,29.90,East,98,9.0,12.0,62,0.00,,,0.02,Wunderground v.1.15,2013-10-05 01:24:00,
2013-10-04 15:30:00,82.0,68.2,29.90,East,101,8.0,13.0,63,0.00,,,0.02,Wunderground v.1.15,2013-10-05 01:30:00,
2013-10-04 15:40:00,82.4,68.1,29.91,East,96,7.0,7.0,62,0.00,,,0.02,Wunderground v.1.15,2013-10-05 01:40:00,
2013-10-04 15:50:00,82.0,68.6,29.90,NE,53,6.0,7.0,64,0.00,,,0.02,Wunderground v.1.15,2013-10-05 01:50:00,
2013-10-04 15:59:00,81.5,69.0,29.91,East,86,6.0,6.0,66,0.00,,,0.02,Wunderground v.1.15,2013-10-05 01:59:00,
2013-10-04 16:05:00,81.2,68.8,29.91,East,98,7.0,8.0,66,0.00,,,0.02,Wunderground v.1.15,2013-10-05 02:05:00,
2013-10-04 16:14:00,81.1,70.0,29.91,NE,41,6.0,6.0,69,0.00,,,0.02,Wunderground v.1.15,2013-10-05 02:14:00,
2013-10-04 16:20:00,80.9,69.3,29.91,East,86,6.0,6.0,68,0.00,,,0.02,Wunderground v.1.15,2013-10-05 02:20:00,
2013-10-04 16:30:00,80.9,68.5,29.91,ENE,63,7.0,7.0,66,0.00,,,0.02,Wunderground v.1.15,2013-10-05 02:30:00,
2013-10-04 16:40:00,80.3,69.2,29.90,NE,51,7.0,10.0,69,0.00,,,0.02,Wunderground v.1.15,2013-10-05 02:40:00,
2013-10-04 16:50:00,79.8,69.6,29.91,ESE,111,6.0,6.0,71,0.00,,,0.02,Wunderground v.1.15,2013-10-05 02:50:00,
2013-10-04 17:00:00,79.0,69.2,29.91,ENE,66,7.0,7.0,72,0.00,,,0.02,Wunderground v.1.15,2013-10-05 03:00:00,
2013-10-04 17:05:00,79.0,69.6,29.91,NE,50,7.0,7.0,73,0.00,,,0.02,Wunderground v.1.15,2013-10-05 03:05:00,
2013-10-04 17:15:00,79.0,69.6,29.91,ENE,61,6.0,6.0,73,0.00,,,0.02,Wunderground v.1.15,2013-10-05 03:15:00,
2013-10-04 17:25:00,78.7,69.3,29.91,ESE,108,6.0,13.0,73,0.00,,,0.02,Wunderground v.1.15,2013-10-05 03:25:00,
2013-10-04 17:34:00,78.4,69.4,29.91,NNE,33,7.0,7.0,74,0.00,,,0.02,Wunderground v.1.15,2013-10-05 03:34:00,
2013-10-04 17:40:00,78.2,69.2,29.92,ENE,67,8.0,15.0,74,0.00,,,0.02,Wunderground v.1.15,2013-10-05 03:40:00,
2013-10-04 17:50:00,78.0,69.0,29.92,ENE,64,6.0,6.0,74,0.00,,,0.02,Wunderground v.1.15,2013-10-05 03:50:00,
2013-10-04 18:00:00,77.8,69.2,29.92,ENE,74,5.0,5.0,75,0.00,,,0.02,Wunderground v.1.15,2013-10-05 04:00:00,
2013-10-04 18:05:00,77.7,69.1,29.92,ENE,71,6.0,6.0,75,0.00,,,0.02,Wunderground v.1.15,2013-10-05 04:05:00,
2013-10-04 18:10:00,77.6,69.0,29.92,ENE,57,6.0,6.0,75,0.00,,,0.02,Wunderground v.1.15,2013-10-05 04:10:00,
2013-10-04 18:15:00,77.4,68.9,29.92,ENE,64,7.0,10.0,75,0.00,,,0.02,Wunderground v.1.15,2013-10-05 04:15:00,
2013-10-04 18:25:00,77.3,69.1,29.92,East,82,6.0,7.0,76,0.00,,,0.02,Wunderground v.1.15,2013-10-05 04:25:00,
2013-10-04 18:30:00,77.2,69.0,29.92,ENE,71,5.0,6.0,76,0.00,,,0.02,Wunderground v.1.15,2013-10-05 04:30:00,
2013-10-04 18:40:00,77.1,68.9,29.92,East,82,5.0,9.0,76,0.00,,,0.02,Wunderground v.1.15,2013-10-05 04:40:00,
2013-10-04 18:50:00,77.1,69.7,29.92,ENE,78,5.0,5.0,78,0.00,,,0.02,Wunderground v.1.15,2013-10-05 04:50:00,
2013-10-04 19:00:00,76.4,70.1,29.93,East,86,4.0,4.0,81,0.00,,,0.02,Wunderground v.1.15,2013-10-05 05:00:00,
2013-10-04 19:10:00,75.9,69.3,29.93,East,85,5.0,5.0,80,0.00,,,0.02,Wunderground v.1.15,2013-10-05 05:10:00,
2013-10-04 19:15:00,75.9,69.3,29.93,East,89,5.0,5.0,80,0.00,,,0.02,Wunderground v.1.15,2013-10-05 05:15:00,
2013-10-04 19:25:00,75.9,69.3,29.93,East,92,5.0,9.0,80,0.00,,,0.02,Wunderground v.1.15,2013-10-05 05:25:00,
2013-10-04 19:35:00,75.9,69.6,29.93,ENE,70,5.0,6.0,81,0.00,,,0.02,Wunderground v.1.15,2013-10-05 05:35:00,
2013-10-04 19:45:00,76.0,69.7,29.94,East,81,4.0,5.0,81,0.00,,,0.02,Wunderground v.1.15,2013-10-05 05:45:00,
2013-10-04 19:55:00,75.9,70.0,29.95,East,79,4.0,5.0,82,0.00,,,0.02,Wunderground v.1.15,2013-10-05 05:55:00,
2013-10-04 20:05:00,75.9,70.4,29.95,ESE,106,3.0,4.0,83,0.00,,,0.02,Wunderground v.1.15,2013-10-05 06:05:00,
2013-10-04 20:14:00,76.0,70.1,29.95,NE,51,3.0,4.0,82,0.00,,,0.02,Wunderground v.1.15,2013-10-05 06:14:00,
2013-10-04 20:20:00,76.2,69.9,29.95,ESE,107,4.0,9.0,81,0.00,,,0.02,Wunderground v.1.15,2013-10-05 06:20:00,
2013-10-04 20:30:00,76.3,70.0,29.96,East,88,4.0,5.0,81,0.00,,,0.02,Wunderground v.1.15,2013-10-05 06:30:00,
2013-10-04 20:40:00,76.2,69.6,29.96,East,84,3.0,6.0,80,0.00,,,0.02,Wunderground v.1.15,2013-10-05 06:40:00,
2013-10-04 20:49:00,76.3,69.7,29.96,ENE,64,5.0,5.0,80,0.00,,,0.02,Wunderground v.1.15,2013-10-05 06:49:00,
2013-10-04 20:55:00,76.4,69.8,29.97,ENE,74,5.0,5.0,80,0.00,,,0.02,Wunderground v.1.15,2013-10-05 06:55:00,
2013-10-04 21:00:00,76.5,70.2,29.96,East,95,4.0,4.0,81,0.00,,,0.02,Wunderground v.1.15,2013-10-05 07:00:00,
2013-10-04 21:05:00,76.4,70.1,29.97,ENE,78,3.0,4.0,81,0.00,,,0.02,Wunderground v.1.15,2013-10-05 07:05:00,
2013-10-04 21:15:00,76.3,70.0,29.97,ENE,67,4.0,5.0,81,0.00,,,0.02,Wunderground v.1.15,2013-10-05 07:15:00,
2013-10-04 21:25:00,76.2,69.9,29.97,ENE,62,4.0,4.0,81,0.00,,,0.02,Wunderground v.1.15,2013-10-05 07:25:00,
2013-10-04 21:35:00,76.3,70.0,29.97,ESE,123,5.0,10.0,81,0.00,,,0.02,Wunderground v.1.15,2013-10-05 07:35:00,
2013-10-04 21:45:00,76.5,70.2,29.97,East,101,5.0,6.0,81,0.00,,,0.02,Wunderground v.1.15,2013-10-05 07:45:00,
2013-10-04 21:55:00,76.5,69.5,29.97,East,79,5.0,11.0,79,0.00,,,0.02,Wunderground v.1.15,2013-10-05 07:55:00,
2013-10-04 22:05:00,76.5,69.5,29.97,East,93,6.0,11.0,79,0.00,,,0.02,Wunderground v.1.15,2013-10-05 08:05:00,
2013-10-04 22:15:00,76.2,69.6,29.97,East,91,6.0,6.0,80,0.00,,,0.02,Wunderground v.1.15,2013-10-05 08:15:00,
2013-10-04 22:25:00,75.9,69.6,29.97,ESE,105,3.0,4.0,81,0.00,,,0.02,Wunderground v.1.15,2013-10-05 08:25:00,
2013-10-04 22:35:00,75.8,69.9,29.97,East,93,3.0,3.0,82,0.00,,,0.02,Wunderground v.1.15,2013-10-05 08:35:00,
2013-10-04 22:40:00,75.7,69.8,29.97,ENE,70,3.0,4.0,82,0.00,,,0.02,Wunderground v.1.15,2013-10-05 08:40:00,
2013-10-04 22:50:00,75.6,69.7,29.97,East,87,3.0,5.0,82,0.00,,,0.02,Wunderground v.1.15,2013-10-05 08:50:00,
2013-10-04 23:00:00,75.8,69.6,29.97,East,97,4.0,8.0,81,0.00,,,0.02,Wunderground v.1.15,2013-10-05 09:00:00,
2013-10-04 23:05:00,75.9,69.3,29.97,ENE,78,3.0,8.0,80,0.00,,,0.02,Wunderground v.1.15,2013-10-05 09:05:00,
2013-10-04 23:15:00,76.1,69.8,29.97,ESE,106,3.0,7.0,81,0.00,,,0.02,Wunderground v.1.15,2013-10-05 09:15:00,
2013-10-04 23:24:00,76.2,69.9,29.97,ESE,118,1.0,2.0,81,0.00,,,0.02,Wunderground v.1.15,2013-10-05 09:24:00,
2013-10-04 23:30:00,76.1,69.8,29.97,ENE,74,1.0,4.0,81,0.00,,,0.02,Wunderground v.1.15,2013-10-05 09:30:00,
2013-10-04 23:40:00,76.1,69.8,29.97,East,83,2.0,4.0,81,0.00,,,0.02,Wunderground v.1.15,2013-10-05 09:40:00,
2013-10-04 23:45:00,76.1,69.8,29.97,East,83,3.0,4.0,81,0.00,,,0.02,Wunderground v.1.15,2013-10-05 09:45:00,
2013-10-04 23:55:00,76.0,69.4,29.96,ESE,110,3.0,3.0,80,0.00,,,0.02,Wunderground v.1.15,2013-10-05 09:55:00,